Time;durP1;ratioP1;P1;durP2;ratioP2;P2;SDS_P1;SDS_P2;PMS_P1;PMS_P2;Temp;Humidity;BMP_temperature;BMP_pressure;BME280_temperature;BME280_humidity;BME280_pressure;Samples;Min_cycle;Max_cycle;Signal;HPM_P1;HPM_P2
2023/07/30 00:01:48;;;;;;;9.52;4.95;;;15.00;99.90;;;;;;5068729;28;20049;-81
2023/07/30 00:04:14;;;;;;;10.15;4.85;;;14.90;99.90;;;;;;5067354;28;20055;-81
2023/07/30 00:06:40;;;;;;;8.80;4.75;;;15.00;99.90;;;;;;5076286;28;20402;-81
2023/07/30 00:09:06;;;;;;;7.78;4.32;;;14.90;99.90;;;;;;5065954;28;20043;-81
2023/07/30 00:11:31;;;;;;;9.73;4.63;;;15.00;99.90;;;;;;5076779;28;20040;-82
2023/07/30 00:13:57;;;;;;;9.43;4.75;;;14.90;99.90;;;;;;5077487;28;20082;-81
2023/07/30 00:16:26;;;;;;;15.25;5.20;;;15.10;99.90;;;;;;5065234;28;20491;-81
2023/07/30 00:18:52;;;;;;;11.95;4.25;;;15.20;99.90;;;;;;5073634;28;20044;-81
2023/07/30 00:21:18;;;;;;;10.93;4.70;;;14.90;99.90;;;;;;5088293;28;20572;-81
2023/07/30 00:23:43;;;;;;;10.98;4.75;;;14.80;99.90;;;;;;5070994;28;20048;-81
2023/07/30 00:26:09;;;;;;;6.55;4.00;;;14.90;99.90;;;;;;5066761;28;20469;-81
2023/07/30 00:28:34;;;;;;;10.52;4.70;;;15.00;99.90;;;;;;5062151;28;20036;-81
2023/07/30 00:31:00;;;;;;;11.23;4.97;;;14.80;99.90;;;;;;5087133;28;20133;-81
2023/07/30 00:33:26;;;;;;;10.85;4.68;;;14.80;99.90;;;;;;5076201;28;20040;-81
2023/07/30 00:35:52;;;;;;;7.43;4.20;;;14.70;99.90;;;;;;5072038;28;20079;-81
2023/07/30 00:38:18;;;;;;;10.73;4.47;;;14.70;99.90;;;;;;5047286;28;20055;-82
2023/07/30 00:40:44;;;;;;;10.10;4.90;;;14.70;99.90;;;;;;5060111;28;20195;-81
2023/07/30 00:43:10;;;;;;;15.63;5.03;;;14.90;99.90;;;;;;5086004;28;20602;-82
2023/07/30 00:45:38;;;;;;;10.82;4.70;;;14.80;99.90;;;;;;5073061;28;20137;-82
2023/07/30 00:48:04;;;;;;;11.15;5.65;;;14.70;99.90;;;;;;5056615;28;20059;-81
2023/07/30 00:50:30;;;;;;;9.60;4.43;;;14.70;99.90;;;;;;5082751;28;20048;-81
2023/07/30 00:52:56;;;;;;;9.98;4.93;;;15.00;99.90;;;;;;5066281;28;20490;-82
2023/07/30 00:55:22;;;;;;;12.57;5.07;;;14.40;99.90;;;;;;5083959;28;20051;-81
2023/07/30 00:57:48;;;;;;;11.32;4.75;;;14.60;99.90;;;;;;5085490;28;20543;-81
2023/07/30 01:00:14;;;;;;;11.52;4.47;;;14.60;99.90;;;;;;5067348;28;20105;-81
2023/07/30 01:02:39;;;;;;;14.30;4.97;;;14.60;99.90;;;;;;5076505;28;20120;-82
2023/07/30 01:05:05;;;;;;;13.32;4.78;;;14.50;99.90;;;;;;5070875;28;20095;-81
2023/07/30 01:07:31;;;;;;;9.52;4.45;;;14.50;99.90;;;;;;5071864;28;20429;-81
2023/07/30 01:09:58;;;;;;;9.15;4.53;;;14.50;99.90;;;;;;5062703;28;20049;-81
2023/07/30 01:12:24;;;;;;;13.20;4.68;;;14.50;99.90;;;;;;5068304;28;20486;-82
2023/07/30 01:14:50;;;;;;;11.25;4.13;;;14.50;99.90;;;;;;5071448;28;20055;-82
2023/07/30 01:17:16;;;;;;;10.05;4.47;;;14.50;99.90;;;;;;5064794;28;20151;-81
2023/07/30 01:19:42;;;;;;;10.77;4.45;;;14.50;99.90;;;;;;5066985;28;20175;-81
2023/07/30 01:22:07;;;;;;;14.40;4.88;;;14.50;99.90;;;;;;5086358;28;20055;-82
2023/07/30 01:24:33;;;;;;;12.10;5.65;;;14.40;99.90;;;;;;5063594;28;20057;-81
2023/07/30 01:27:03;;;;;;;11.05;4.55;;;14.40;99.90;;;;;;5066492;28;20052;-82
2023/07/30 01:29:40;;;;;;;11.77;4.78;;;14.40;99.90;;;;;;5050822;28;20044;-81
2023/07/30 01:32:10;;;;;;;15.50;4.97;;;14.40;99.90;;;;;;5071546;28;20357;-81
2023/07/30 01:34:37;;;;;;;12.50;4.88;;;14.40;99.90;;;;;;5074702;28;20063;-81
2023/07/30 01:37:05;;;;;;;10.13;5.13;;;14.40;99.90;;;;;;5065323;28;20131;-82
2023/07/30 01:39:32;;;;;;;12.68;4.65;;;14.40;99.90;;;;;;5067817;28;20482;-81
2023/07/30 01:41:58;;;;;;;14.05;5.20;;;14.40;99.90;;;;;;5050997;28;20037;-82
2023/07/30 01:44:24;;;;;;;12.70;4.50;;;14.40;99.90;;;;;;5053584;28;20041;-81
2023/07/30 01:46:49;;;;;;;10.35;4.72;;;14.30;99.90;;;;;;5074449;28;20060;-81
2023/07/30 01:49:15;;;;;;;12.32;4.97;;;14.30;99.90;;;;;;5072894;28;20399;-82
2023/07/30 01:51:40;;;;;;;9.90;4.90;;;14.30;99.90;;;;;;5070587;28;20044;-81
2023/07/30 01:54:06;;;;;;;10.13;4.97;;;14.30;99.90;;;;;;5067029;28;20078;-81
2023/07/30 01:56:31;;;;;;;11.52;4.50;;;14.20;99.90;;;;;;5067927;28;20567;-81
2023/07/30 01:58:57;;;;;;;11.43;5.13;;;14.20;99.90;;;;;;5069828;28;20052;-81
2023/07/30 02:01:23;;;;;;;10.18;4.70;;;14.20;99.90;;;;;;5086129;28;20119;-81
2023/07/30 02:03:48;;;;;;;15.27;5.20;;;14.20;99.90;;;;;;5067498;28;20048;-81
2023/07/30 02:06:14;;;;;;;9.88;4.65;;;14.10;99.90;;;;;;5069677;28;20044;-82
2023/07/30 02:08:40;;;;;;;11.25;4.70;;;14.60;99.90;;;;;;5067006;28;20048;-82
2023/07/30 02:11:05;;;;;;;9.80;4.50;;;14.30;99.90;;;;;;5069513;28;20056;-82
2023/07/30 02:13:31;;;;;;;6.15;3.45;;;14.10;99.90;;;;;;5077233;28;20036;-82
2023/07/30 02:15:56;;;;;;;9.82;4.28;;;14.10;99.90;;;;;;5078036;28;20071;-82
2023/07/30 02:18:22;;;;;;;10.13;4.47;;;14.10;99.90;;;;;;5072696;28;20052;-81
2023/07/30 02:20:48;;;;;;;10.20;3.92;;;14.10;99.90;;;;;;5051040;28;20032;-82
2023/07/30 02:23:16;;;;;;;11.10;4.68;;;14.10;99.90;;;;;;5070756;28;20103;-82
2023/07/30 02:25:41;;;;;;;12.65;4.22;;;14.20;99.90;;;;;;5076131;28;20052;-82
2023/07/30 02:28:07;;;;;;;12.80;4.75;;;14.20;99.90;;;;;;5073743;28;20569;-82
2023/07/30 02:30:33;;;;;;;9.85;4.30;;;14.00;99.90;;;;;;5067924;28;20080;-82
2023/07/30 02:32:59;;;;;;;11.20;4.65;;;14.00;99.90;;;;;;5050852;28;20055;-82
2023/07/30 02:35:25;;;;;;;8.70;4.10;;;13.90;99.90;;;;;;5069404;28;20043;-83
2023/07/30 02:37:50;;;;;;;10.60;4.03;;;14.00;99.90;;;;;;5076157;28;20102;-82
2023/07/30 02:40:16;;;;;;;11.35;3.95;;;14.00;99.90;;;;;;5067028;28;20114;-82
2023/07/30 02:42:42;;;;;;;9.45;4.20;;;14.00;99.90;;;;;;5079896;28;20051;-82
2023/07/30 02:45:08;;;;;;;8.98;4.50;;;14.40;99.90;;;;;;5068774;28;20047;-82
2023/07/30 02:47:33;;;;;;;9.80;3.88;;;14.00;99.90;;;;;;5076682;28;20041;-82
2023/07/30 02:49:59;;;;;;;13.60;4.80;;;14.00;99.90;;;;;;5069892;28;22050;-82
2023/07/30 02:52:24;;;;;;;11.95;3.95;;;14.00;99.90;;;;;;5067009;28;20050;-82
2023/07/30 02:54:53;;;;;;;11.48;4.30;;;14.00;99.90;;;;;;5067440;28;20068;-82
2023/07/30 02:57:19;;;;;;;11.52;4.68;;;14.10;99.90;;;;;;5083688;28;20044;-82
2023/07/30 02:59:44;;;;;;;9.00;4.20;;;14.10;99.90;;;;;;5060975;28;21365;-83
2023/07/30 03:02:10;;;;;;;12.32;3.92;;;14.10;99.90;;;;;;5059047;28;20098;-82
2023/07/30 03:04:36;;;;;;;9.48;3.70;;;14.10;99.90;;;;;;5088483;28;20048;-82
2023/07/30 03:07:01;;;;;;;10.55;4.00;;;14.50;99.90;;;;;;5070687;28;20048;-82
2023/07/30 03:09:27;;;;;;;10.48;4.35;;;14.10;99.90;;;;;;5067487;28;20044;-82
2023/07/30 03:11:53;;;;;;;9.40;3.92;;;14.40;99.90;;;;;;5050829;28;20045;-82
2023/07/30 03:14:20;;;;;;;7.15;3.63;;;14.20;99.90;;;;;;5054454;28;20064;-82
2023/07/30 03:16:46;;;;;;;8.35;3.67;;;14.20;99.90;;;;;;5069932;28;20593;-82
2023/07/30 03:19:12;;;;;;;9.38;3.97;;;14.10;99.90;;;;;;5065908;28;20049;-82
2023/07/30 03:21:38;;;;;;;13.95;4.50;;;14.20;99.90;;;;;;5066537;28;20044;-82
2023/07/30 03:24:04;;;;;;;11.00;3.83;;;14.20;99.90;;;;;;5066533;28;20123;-82
2023/07/30 03:26:29;;;;;;;11.57;3.63;;;14.20;99.90;;;;;;5053530;28;20767;-82
2023/07/30 03:28:55;;;;;;;15.18;3.70;;;14.50;99.90;;;;;;5077374;28;20048;-82
2023/07/30 03:31:20;;;;;;;7.88;3.33;;;14.20;99.90;;;;;;5080526;28;20040;-82
2023/07/30 03:33:46;;;;;;;8.38;3.30;;;14.20;99.90;;;;;;5069173;28;20114;-82
2023/07/30 03:36:15;;;;;;;8.45;3.70;;;14.20;99.90;;;;;;5072484;28;20050;-82
2023/07/30 03:38:42;;;;;;;12.13;3.50;;;14.20;99.90;;;;;;5074280;28;20051;-82
2023/07/30 03:41:08;;;;;;;11.75;3.78;;;14.30;99.90;;;;;;5069071;28;20131;-82
2023/07/30 03:43:34;;;;;;;11.38;4.05;;;14.30;99.90;;;;;;5085015;28;20123;-82
2023/07/30 03:46:00;;;;;;;10.30;3.95;;;14.30;99.90;;;;;;5062518;28;20155;-82
2023/07/30 03:48:26;;;;;;;14.82;3.78;;;14.30;99.90;;;;;;5075774;28;20054;-82
2023/07/30 03:50:53;;;;;;;11.15;3.33;;;14.30;99.90;;;;;;5063470;28;20044;-82
2023/07/30 03:53:19;;;;;;;14.35;3.75;;;14.30;99.90;;;;;;5066775;28;20499;-82
2023/07/30 03:55:45;;;;;;;9.43;3.42;;;14.30;99.90;;;;;;5066788;28;20134;-82
2023/07/30 03:58:10;;;;;;;9.90;3.47;;;14.20;99.90;;;;;;5073359;28;20040;-82
2023/07/30 04:00:36;;;;;;;11.88;3.53;;;14.20;99.90;;;;;;5083100;28;20507;-82
2023/07/30 04:03:02;;;;;;;10.95;3.75;;;14.20;99.90;;;;;;5065465;28;20483;-82
2023/07/30 04:05:27;;;;;;;10.57;3.47;;;14.20;99.90;;;;;;5065869;28;20781;-82
2023/07/30 04:07:53;;;;;;;8.48;3.10;;;14.20;99.90;;;;;;5065895;28;20507;-82
2023/07/30 04:10:19;;;;;;;11.65;3.70;;;14.20;99.90;;;;;;5049746;28;20044;-82
2023/07/30 04:12:45;;;;;;;7.43;3.10;;;14.10;99.90;;;;;;5067055;28;20048;-82
2023/07/30 04:15:10;;;;;;;7.78;3.42;;;14.20;99.90;;;;;;5067179;28;20044;-82
2023/07/30 04:17:37;;;;;;;14.02;3.30;;;14.30;99.90;;;;;;5065363;28;20403;-82
2023/07/30 04:20:04;;;;;;;8.43;3.17;;;14.20;99.90;;;;;;5064946;28;20060;-82
2023/07/30 04:22:30;;;;;;;10.32;3.95;;;14.20;99.90;;;;;;5067096;28;20083;-82
2023/07/30 04:24:56;;;;;;;7.75;3.25;;;14.20;99.90;;;;;;5085785;28;20143;-83
2023/07/30 04:27:22;;;;;;;11.35;3.50;;;14.20;99.90;;;;;;5085247;28;20040;-82
2023/07/30 04:29:47;;;;;;;6.47;3.50;;;14.70;99.90;;;;;;5065831;28;20040;-82
2023/07/30 04:32:13;;;;;;;8.57;3.58;;;14.30;99.90;;;;;;5071191;28;20110;-82
2023/07/30 04:34:38;;;;;;;10.15;3.55;;;14.60;99.90;;;;;;5058053;28;20051;-82
2023/07/30 04:37:04;;;;;;;9.65;3.58;;;14.30;99.90;;;;;;5068040;28;20052;-83
2023/07/30 04:39:32;;;;;;;11.38;3.72;;;14.50;99.90;;;;;;5052435;28;20040;-82
2023/07/30 04:41:58;;;;;;;9.52;3.72;;;14.40;99.90;;;;;;5065378;28;20356;-82
2023/07/30 04:44:24;;;;;;;11.68;4.38;;;14.50;99.90;;;;;;5069455;28;20091;-82
2023/07/30 04:46:49;;;;;;;10.02;3.70;;;14.60;99.90;;;;;;5069579;28;20131;-82
2023/07/30 04:49:15;;;;;;;13.20;4.30;;;15.00;99.90;;;;;;5065929;28;20032;-82
2023/07/30 04:51:41;;;;;;;12.57;4.07;;;14.80;99.90;;;;;;5064720;28;20086;-82
2023/07/30 04:54:06;;;;;;;8.75;3.72;;;14.90;99.90;;;;;;5074887;28;20163;-82
2023/07/30 04:56:32;;;;;;;11.85;3.83;;;15.00;99.90;;;;;;5074280;28;20040;-82
2023/07/30 04:58:58;;;;;;;9.32;3.30;;;15.30;99.90;;;;;;5067782;28;20442;-83
2023/07/30 05:01:26;;;;;;;10.27;3.78;;;15.20;99.90;;;;;;5066112;28;20127;-82
2023/07/30 05:03:52;;;;;;;18.45;4.25;;;15.20;99.90;;;;;;5069417;28;20524;-82
2023/07/30 05:06:18;;;;;;;9.30;3.50;;;15.30;99.90;;;;;;5049695;28;20076;-82
2023/07/30 05:08:44;;;;;;;9.55;3.45;;;15.30;99.90;;;;;;5069956;28;20049;-82
2023/07/30 05:11:09;;;;;;;13.35;3.85;;;15.30;99.90;;;;;;5064870;28;20238;-82
2023/07/30 05:13:35;;;;;;;10.70;4.68;;;15.50;99.90;;;;;;5070264;28;20036;-82
2023/07/30 05:16:01;;;;;;;16.90;4.15;;;15.40;99.90;;;;;;5072920;28;20102;-82
2023/07/30 05:18:27;;;;;;;12.02;4.32;;;15.50;99.90;;;;;;5054286;28;20048;-82
2023/07/30 05:20:52;;;;;;;11.68;4.35;;;15.60;99.90;;;;;;5070733;28;20135;-82
2023/07/30 05:23:19;;;;;;;8.57;3.97;;;15.60;99.90;;;;;;5068996;28;20103;-82
2023/07/30 05:25:44;;;;;;;17.02;4.93;;;15.60;99.90;;;;;;5070483;28;20052;-82
2023/07/30 05:28:10;;;;;;;14.20;5.07;;;15.70;99.90;;;;;;5069118;28;20391;-83
2023/07/30 05:30:35;;;;;;;9.68;3.58;;;15.70;99.90;;;;;;5076160;28;20064;-82
2023/07/30 05:33:01;;;;;;;12.45;3.85;;;15.80;99.90;;;;;;5075689;28;20036;-82
2023/07/30 05:35:27;;;;;;;16.13;4.28;;;15.80;99.90;;;;;;5069297;28;20089;-83
2023/07/30 05:37:52;;;;;;;13.93;4.43;;;16.10;99.90;;;;;;5076152;28;20051;-82
2023/07/30 05:40:18;;;;;;;13.70;4.90;;;15.80;99.90;;;;;;5081644;28;20410;-83
2023/07/30 05:42:43;;;;;;;13.63;4.65;;;16.00;99.90;;;;;;5087960;28;20040;-83
2023/07/30 05:45:09;;;;;;;12.13;4.38;;;16.00;99.90;;;;;;5069146;28;20073;-83
2023/07/30 05:47:35;;;;;;;10.95;4.13;;;16.10;99.90;;;;;;5072780;28;20075;-82
2023/07/30 05:50:02;;;;;;;13.60;4.25;;;16.30;99.90;;;;;;5085048;28;20044;-82
2023/07/30 05:52:28;;;;;;;11.73;4.65;;;16.10;99.90;;;;;;5082762;28;20036;-82
2023/07/30 05:54:53;;;;;;;14.35;4.38;;;16.10;99.90;;;;;;5077647;28;20368;-82
2023/07/30 05:57:19;;;;;;;11.65;4.25;;;16.20;99.90;;;;;;5075231;28;20045;-82
2023/07/30 05:59:44;;;;;;;12.38;3.92;;;16.50;99.90;;;;;;5087177;28;20056;-82
2023/07/30 06:02:10;;;;;;;12.55;4.30;;;16.20;99.90;;;;;;5080866;28;20109;-82
2023/07/30 06:04:36;;;;;;;12.60;4.20;;;16.30;99.90;;;;;;5078136;28;20170;-81
2023/07/30 06:07:03;;;;;;;14.20;4.40;;;16.50;99.90;;;;;;5065883;28;20045;-83
2023/07/30 06:09:28;;;;;;;14.18;4.50;;;16.40;99.90;;;;;;5076430;28;20095;-80
2023/07/30 06:11:57;;;;;;;14.48;4.20;;;16.50;99.90;;;;;;5074124;28;20076;-82
2023/07/30 06:14:23;;;;;;;10.10;4.03;;;16.50;99.90;;;;;;5078226;28;20036;-82
2023/07/30 06:16:50;;;;;;;16.58;4.32;;;16.60;99.90;;;;;;5085154;28;20048;-81
2023/07/30 06:19:16;;;;;;;14.38;4.53;;;16.60;99.90;;;;;;5063920;28;20122;-80
2023/07/30 06:21:42;;;;;;;15.63;4.07;;;16.70;99.90;;;;;;5072225;28;20108;-84
2023/07/30 06:24:08;;;;;;;13.73;4.63;;;16.80;99.90;;;;;;5081805;28;20457;-81
2023/07/30 06:26:33;;;;;;;14.57;4.78;;;17.10;99.90;;;;;;5067951;28;20039;-80
2023/07/30 06:28:59;;;;;;;12.27;3.95;;;17.20;99.90;;;;;;5076482;28;20101;-81
2023/07/30 06:31:25;;;;;;;14.05;4.32;;;17.20;99.90;;;;;;5070983;28;20044;-81
2023/07/30 06:33:50;;;;;;;15.02;4.38;;;17.20;99.90;;;;;;5074600;28;20477;-81
2023/07/30 06:36:16;;;;;;;17.55;4.78;;;17.20;99.90;;;;;;5080316;28;20134;-83
2023/07/30 06:38:42;;;;;;;17.17;5.15;;;17.10;99.90;;;;;;5080276;28;20040;-82
2023/07/30 06:41:07;;;;;;;13.82;4.13;;;17.10;99.90;;;;;;5077693;28;20037;-82
2023/07/30 06:43:33;;;;;;;13.88;4.10;;;17.10;99.90;;;;;;5075662;28;20060;-81
2023/07/30 06:45:58;;;;;;;14.75;4.70;;;17.50;99.90;;;;;;5075962;28;20120;-82
2023/07/30 06:48:24;;;;;;;13.70;4.25;;;17.10;99.90;;;;;;5071102;28;20084;-82
2023/07/30 06:50:52;;;;;;;11.63;4.47;;;17.20;99.90;;;;;;5060322;28;20048;-83
2023/07/30 06:53:17;;;;;;;13.27;4.30;;;17.30;99.90;;;;;;5069227;28;20087;-83
2023/07/30 06:55:43;;;;;;;15.65;4.10;;;17.50;99.90;;;;;;5068821;28;20437;-83
2023/07/30 06:58:09;;;;;;;10.15;4.05;;;17.70;99.90;;;;;;5076137;28;20063;-82
2023/07/30 07:00:35;;;;;;;13.43;4.32;;;18.10;99.90;;;;;;5079312;28;20044;-83
2023/07/30 07:03:00;;;;;;;16.85;4.18;;;18.20;99.90;;;;;;5071466;28;20090;-84
2023/07/30 07:05:26;;;;;;;9.70;3.03;;;18.30;99.90;;;;;;5083784;28;20048;-84
2023/07/30 07:07:51;;;;;;;13.63;3.90;;;18.40;99.90;;;;;;5058635;28;20568;-83
2023/07/30 07:10:17;;;;;;;11.38;3.22;;;18.40;99.90;;;;;;5075473;28;20496;-84
2023/07/30 07:12:43;;;;;;;10.57;3.63;;;18.50;99.90;;;;;;5071206;28;20490;-83
2023/07/30 07:15:08;;;;;;;9.38;3.20;;;18.50;99.90;;;;;;5075955;28;20406;-82
2023/07/30 07:17:35;;;;;;;10.65;3.08;;;18.90;99.90;;;;;;5078144;28;20052;-82
2023/07/30 07:20:01;;;;;;;18.15;4.50;;;18.60;99.90;;;;;;5073725;28;20088;-83
2023/07/30 07:22:26;;;;;;;10.02;3.20;;;18.60;99.90;;;;;;5058533;28;20087;-82
2023/07/30 07:24:52;;;;;;;12.25;3.50;;;18.70;99.90;;;;;;5075345;28;20068;-83
2023/07/30 07:27:23;;;;;;;12.00;2.85;;;18.80;99.90;;;;;;5075642;28;20101;-83
2023/07/30 07:29:50;;;;;;;14.68;3.55;;;18.90;99.90;;;;;;5081979;28;20057;-83
2023/07/30 07:32:15;;;;;;;14.65;3.28;;;19.00;99.90;;;;;;5075260;28;20044;-83
2023/07/30 07:34:41;;;;;;;10.68;3.00;;;19.10;99.90;;;;;;5069860;28;20059;-83
2023/07/30 07:37:06;;;;;;;13.35;3.45;;;19.30;99.90;;;;;;5086571;28;20109;-83
2023/07/30 07:39:33;;;;;;;11.85;2.70;;;19.20;99.90;;;;;;5053461;28;20156;-83
2023/07/30 07:41:59;;;;;;;9.02;2.50;;;19.70;99.90;;;;;;5081353;28;20106;-83
2023/07/30 07:44:24;;;;;;;9.18;2.75;;;19.90;99.90;;;;;;5082340;28;20044;-83
2023/07/30 07:46:50;;;;;;;9.05;2.47;;;20.00;99.90;;;;;;5076713;28;20585;-83
2023/07/30 07:49:15;;;;;;;8.55;2.60;;;19.90;99.90;;;;;;5077814;28;20044;-84
2023/07/30 07:51:41;;;;;;;10.88;2.83;;;19.80;99.90;;;;;;5056830;28;20040;-84
2023/07/30 07:54:07;;;;;;;9.88;2.28;;;19.60;99.90;;;;;;5067167;28;20090;-83
2023/07/30 07:56:32;;;;;;;10.07;2.50;;;19.70;99.90;;;;;;5075246;28;20618;-82
2023/07/30 07:58:58;;;;;;;7.10;2.30;;;20.00;99.90;;;;;;5057370;28;20078;-83
2023/07/30 08:01:24;;;;;;;9.25;3.00;;;20.20;99.90;;;;;;5075278;28;20035;-83
2023/07/30 08:03:50;;;;;;;9.35;2.53;;;20.30;99.90;;;;;;5060705;28;20055;-83
2023/07/30 08:06:16;;;;;;;7.72;2.40;;;20.40;99.90;;;;;;5073210;28;20115;-82
2023/07/30 08:08:41;;;;;;;6.45;2.00;;;20.40;99.90;;;;;;5075022;28;20528;-83
2023/07/30 08:11:08;;;;;;;8.70;2.25;;;20.50;99.90;;;;;;5076486;28;20097;-83
2023/07/30 08:13:34;;;;;;;8.65;2.28;;;20.90;99.90;;;;;;5082161;28;20115;-83
2023/07/30 08:16:00;;;;;;;9.57;2.60;;;20.60;99.90;;;;;;5058733;28;20052;-82
2023/07/30 08:18:26;;;;;;;9.52;2.45;;;20.60;99.90;;;;;;5070208;28;20037;-83
2023/07/30 08:20:55;;;;;;;9.23;2.40;;;20.50;99.90;;;;;;5081614;28;20077;-83
2023/07/30 08:23:20;;;;;;;7.25;2.50;;;20.80;99.90;;;;;;5049139;28;20098;-83
2023/07/30 08:25:46;;;;;;;9.65;2.80;;;20.60;99.90;;;;;;5073565;28;20052;-83
2023/07/30 08:28:12;;;;;;;8.18;2.20;;;20.60;99.90;;;;;;5073943;28;20038;-82
2023/07/30 08:30:37;;;;;;;8.88;2.50;;;20.50;99.90;;;;;;5072350;28;20035;-82
2023/07/30 08:33:03;;;;;;;8.40;2.55;;;20.40;99.90;;;;;;5075464;28;20047;-82
2023/07/30 08:35:29;;;;;;;10.15;3.20;;;20.00;99.90;;;;;;5058979;28;20406;-83
2023/07/30 08:37:55;;;;;;;9.40;2.60;;;20.30;99.90;;;;;;5067799;28;20164;-83
2023/07/30 08:40:23;;;;;;;5.93;2.20;;;20.30;99.90;;;;;;5062466;28;20090;-82
2023/07/30 08:42:50;;;;;;;8.90;2.15;;;20.00;99.90;;;;;;5079481;28;20163;-82
2023/07/30 08:45:16;;;;;;;7.60;2.30;;;20.10;99.90;;;;;;5076952;28;20056;-83
2023/07/30 08:47:42;;;;;;;8.93;2.40;;;20.00;99.90;;;;;;5077460;28;20123;-83
2023/07/30 08:50:08;;;;;;;7.13;2.40;;;20.10;99.90;;;;;;5076253;28;20128;-82
2023/07/30 08:52:36;;;;;;;5.35;2.15;;;19.80;99.90;;;;;;5077301;28;20036;-82
2023/07/30 08:55:03;;;;;;;7.45;2.13;;;19.70;99.90;;;;;;5075796;28;20062;-82
2023/07/30 08:57:29;;;;;;;9.40;2.75;;;19.70;99.90;;;;;;5074372;28;20044;-82
2023/07/30 09:00:03;;;;;;;10.35;3.28;;;19.70;99.90;;;;;;5073765;28;20049;-82
2023/07/30 09:02:38;;;;;;;6.90;2.92;;;19.60;99.90;;;;;;5069405;28;20048;-82
2023/07/30 09:05:08;;;;;;;9.82;3.50;;;19.60;99.90;;;;;;5077220;28;20045;-82
2023/07/30 09:07:33;;;;;;;8.38;3.20;;;19.60;99.90;;;;;;5076621;28;20082;-82
2023/07/30 09:09:59;;;;;;;6.38;3.10;;;19.90;99.90;;;;;;5076995;28;20076;-83
2023/07/30 09:12:32;;;;;;;8.88;2.95;;;19.80;99.90;;;;;;5074400;28;20532;-83
2023/07/30 09:14:58;;;;;;;11.07;3.38;;;19.80;99.90;;;;;;5074202;28;20053;-82
2023/07/30 09:17:24;;;;;;;8.57;3.03;;;19.80;99.90;;;;;;5075134;28;20056;-82
2023/07/30 09:19:51;;;;;;;6.45;2.92;;;20.00;99.90;;;;;;5056361;28;20086;-83
2023/07/30 09:22:36;;;;;;;10.73;3.30;;;19.60;99.90;;;;;;5076422;28;20060;-82
2023/07/30 09:25:02;;;;;;;7.80;3.00;;;19.50;99.90;;;;;;5056621;28;20040;-82
2023/07/30 09:27:28;;;;;;;8.88;3.40;;;19.70;99.90;;;;;;5074239;28;20127;-84
2023/07/30 09:30:02;;;;;;;9.75;2.85;;;19.40;99.90;;;;;;5073373;28;20115;-82
2023/07/30 09:32:32;;;;;;;5.97;2.47;;;19.30;99.90;;;;;;5076357;28;20494;-82
2023/07/30 09:35:09;;;;;;;10.73;2.90;;;19.30;99.90;;;;;;5079801;28;20063;-82
2023/07/30 09:37:41;;;;;;;7.88;2.78;;;19.30;99.90;;;;;;5067672;28;20145;-82
2023/07/30 09:40:12;;;;;;;8.43;2.85;;;19.30;99.90;;;;;;5078068;28;20048;-81
2023/07/30 09:42:41;;;;;;;8.90;3.00;;;19.50;99.90;;;;;;5077098;28;20044;-83
2023/07/30 09:45:16;;;;;;;8.85;2.90;;;19.10;99.90;;;;;;5053466;28;20517;-83
2023/07/30 09:47:52;;;;;;;6.75;2.25;;;19.00;99.90;;;;;;5076121;28;20397;-82
2023/07/30 09:50:18;;;;;;;10.60;3.00;;;18.80;99.90;;;;;;5069916;28;20080;-83
2023/07/30 09:52:44;;;;;;;6.75;2.58;;;18.40;99.90;;;;;;5056170;28;20079;-83
2023/07/30 09:55:10;;;;;;;4.85;2.47;;;18.10;99.90;;;;;;5078795;28;20042;-82
2023/07/30 09:57:37;;;;;;;5.32;2.22;;;17.70;99.90;;;;;;5057510;28;20078;-82
2023/07/30 10:00:08;;;;;;;5.45;1.77;;;17.40;99.90;;;;;;5053889;28;20123;-83
2023/07/30 10:02:39;;;;;;;7.53;1.98;;;17.20;99.90;;;;;;5077078;28;20792;-82
2023/07/30 10:05:10;;;;;;;4.22;1.80;;;17.00;99.90;;;;;;5078293;28;20045;-83
2023/07/30 10:07:40;;;;;;;3.60;1.58;;;16.70;99.90;;;;;;5077676;28;20048;-82
2023/07/30 10:10:07;;;;;;;6.60;1.88;;;16.50;99.90;;;;;;5080341;28;20111;-82
2023/07/30 10:12:35;;;;;;;4.57;1.70;;;16.40;99.90;;;;;;5080270;28;20063;-83
2023/07/30 10:15:01;;;;;;;6.43;2.08;;;16.40;99.90;;;;;;5085054;28;20548;-83
2023/07/30 10:17:28;;;;;;;4.00;1.52;;;16.40;99.90;;;;;;5068638;28;20041;-82
2023/07/30 10:19:54;;;;;;;6.82;1.75;;;16.40;99.90;;;;;;5062767;28;20513;-82
2023/07/30 10:22:25;;;;;;;6.15;1.83;;;16.50;99.90;;;;;;5083542;28;20052;-83
2023/07/30 10:24:58;;;;;;;5.20;1.92;;;16.60;99.90;;;;;;5066148;28;20151;-82
2023/07/30 10:27:27;;;;;;;5.60;1.73;;;16.80;99.90;;;;;;5068612;28;20044;-82
2023/07/30 10:30:15;;;;;;;5.32;2.00;;;17.00;99.90;;;;;;5075938;28;20075;-83
2023/07/30 10:32:42;;;;;;;5.70;1.70;;;17.20;99.90;;;;;;5076979;28;20159;-82
2023/07/30 10:35:08;;;;;;;5.57;1.77;;;17.30;99.90;;;;;;5087253;28;20052;-83
2023/07/30 10:37:34;;;;;;;6.43;2.15;;;17.60;99.90;;;;;;5070916;28;20048;-82
2023/07/30 10:39:59;;;;;;;6.80;2.15;;;17.80;99.90;;;;;;5075821;28;20040;-83
2023/07/30 10:42:34;;;;;;;6.13;2.10;;;18.10;99.90;;;;;;5077289;28;20048;-84
2023/07/30 10:44:59;;;;;;;7.43;2.00;;;18.40;99.90;;;;;;5051998;28;20147;-83
2023/07/30 10:47:27;;;;;;;6.70;2.28;;;18.50;99.90;;;;;;5087846;28;20127;-85
2023/07/30 10:49:53;;;;;;;7.53;2.50;;;18.80;99.90;;;;;;5089152;28;20146;-84
2023/07/30 10:52:24;;;;;;;6.78;1.98;;;19.30;99.90;;;;;;5075459;28;20706;-84
2023/07/30 10:55:00;;;;;;;6.28;2.13;;;19.10;99.90;;;;;;5088975;28;20531;-84
2023/07/30 10:57:32;;;;;;;6.18;2.20;;;19.20;99.90;;;;;;5079099;28;20736;-85
2023/07/30 10:59:59;;;;;;;4.72;2.00;;;19.40;99.90;;;;;;5088547;28;20043;-85
2023/07/30 11:02:28;;;;;;;9.68;2.58;;;19.60;99.90;;;;;;5069936;28;20044;-85
2023/07/30 11:04:54;;;;;;;7.78;2.28;;;19.70;99.90;;;;;;5074538;28;20040;-84
2023/07/30 11:07:19;;;;;;;7.65;2.28;;;19.60;99.90;;;;;;5087656;28;20044;-83
2023/07/30 11:09:45;;;;;;;7.35;2.17;;;19.50;99.90;;;;;;5069451;28;20055;-83
2023/07/30 11:12:11;;;;;;;8.52;2.30;;;19.50;99.90;;;;;;5084608;28;20046;-85
2023/07/30 11:14:36;;;;;;;6.47;2.00;;;19.60;99.90;;;;;;5073526;28;20062;-85
2023/07/30 11:17:02;;;;;;;5.53;2.22;;;19.70;99.90;;;;;;5088188;28;20040;-87
2023/07/30 11:19:29;;;;;;;7.22;2.03;;;19.80;99.90;;;;;;5076284;28;20048;-83
2023/07/30 11:21:57;;;;;;;8.75;1.77;;;20.00;99.90;;;;;;5073408;28;20060;-84
2023/07/30 11:24:37;;;;;;;6.53;1.95;;;20.00;99.90;;;;;;5088866;28;20032;-84
2023/07/30 11:27:03;;;;;;;7.70;2.10;;;20.10;99.90;;;;;;5059463;28;20045;-83
2023/07/30 11:29:29;;;;;;;7.85;2.20;;;20.30;99.90;;;;;;5066739;28;20131;-86
2023/07/30 11:31:59;;;;;;;10.07;2.50;;;20.40;99.90;;;;;;5070149;28;20207;-87
2023/07/30 11:34:28;;;;;;;7.40;2.10;;;20.20;99.90;;;;;;5076417;28;20074;-86
2023/07/30 11:36:55;;;;;;;7.63;2.00;;;20.30;99.90;;;;;;5070497;28;20506;-83
2023/07/30 11:39:23;;;;;;;6.40;1.90;;;20.40;99.90;;;;;;5055404;28;20047;-86
2023/07/30 11:41:49;;;;;;;6.07;1.60;;;20.60;99.90;;;;;;5083779;28;20457;-85
2023/07/30 11:44:39;;;;;;;7.13;1.65;;;20.70;99.90;;;;;;5087468;28;20123;-84
2023/07/30 11:47:06;;;;;;;4.55;1.52;;;20.90;99.90;;;;;;5068537;28;20052;-84
2023/07/30 11:49:31;;;;;;;4.22;1.60;;;21.00;99.90;;;;;;5050496;28;20109;-84
2023/07/30 11:52:10;;;;;;;7.28;1.98;;;21.00;99.90;;;;;;5050542;28;20041;-83
2023/07/30 11:54:36;;;;;;;5.47;1.58;;;21.10;99.90;;;;;;5066463;28;20036;-85
2023/07/30 11:57:02;;;;;;;4.13;1.58;;;21.30;99.90;;;;;;5084611;28;20083;-85
2023/07/30 11:59:28;;;;;;;5.13;1.70;;;21.30;99.90;;;;;;5086818;28;20090;-83
2023/07/30 12:01:53;;;;;;;4.03;1.58;;;21.30;99.90;;;;;;5087556;28;20055;-83
2023/07/30 12:04:19;;;;;;;4.20;1.48;;;21.40;99.90;;;;;;5087834;28;20043;-83
2023/07/30 12:06:49;;;;;;;6.50;1.45;;;21.50;99.90;;;;;;5085516;28;20849;-84
2023/07/30 12:09:25;;;;;;;4.93;1.38;;;21.30;99.90;;;;;;5077406;28;20048;-83
2023/07/30 12:11:58;;;;;;;5.93;1.60;;;21.40;99.90;;;;;;5066153;28;20052;-83
2023/07/30 12:14:30;;;;;;;6.95;1.83;;;21.30;99.90;;;;;;5073095;28;20479;-86
2023/07/30 12:16:56;;;;;;;5.57;1.60;;;21.40;99.90;;;;;;5066344;28;20395;-85
2023/07/30 12:19:22;;;;;;;5.78;1.70;;;21.40;99.90;;;;;;5066437;28;20386;-85
2023/07/30 12:21:47;;;;;;;6.95;1.50;;;21.60;99.90;;;;;;5066554;28;20052;-85
2023/07/30 12:24:13;;;;;;;4.15;1.35;;;21.30;99.90;;;;;;5049007;28;20033;-83
2023/07/30 12:26:38;;;;;;;3.78;1.38;;;21.40;99.90;;;;;;5066147;28;20064;-85
2023/07/30 12:29:04;;;;;;;5.30;1.45;;;21.40;99.90;;;;;;5077193;28;20371;-85
2023/07/30 12:31:30;;;;;;;4.75;1.48;;;21.40;99.90;;;;;;5066135;28;20134;-84
2023/07/30 12:33:55;;;;;;;6.50;1.40;;;21.40;99.90;;;;;;5065646;28;20105;-85
2023/07/30 12:36:21;;;;;;;5.28;1.40;;;21.30;99.90;;;;;;5086671;28;20051;-85
2023/07/30 12:38:46;;;;;;;4.28;1.48;;;21.10;99.90;;;;;;5066746;28;20051;-84
2023/07/30 12:41:12;;;;;;;5.07;1.40;;;21.10;99.90;;;;;;5048058;28;20067;-83